createdAt,value
2019-03-30T00:00:29.633Z,101699.00
2019-03-30T00:03:00.890Z,101696.00
2019-03-30T00:05:32.690Z,101694.00
2019-03-30T00:08:04.137Z,101691.00
2019-03-30T00:10:35.644Z,101688.00
2019-03-30T00:13:07.238Z,101682.00
2019-03-30T00:15:38.442Z,101684.00
2019-03-30T00:18:09.655Z,101671.00
2019-03-30T00:20:40.933Z,101676.00
2019-03-30T00:23:12.119Z,101680.00
2019-03-30T00:25:43.744Z,101682.00
2019-03-30T00:28:15.286Z,101673.00
2019-03-30T00:30:46.738Z,101666.00
2019-03-30T00:33:17.965Z,101676.00
2019-03-30T00:35:49.127Z,101670.00
2019-03-30T00:38:20.355Z,101677.00
2019-03-30T00:40:51.791Z,101667.00
2019-03-30T00:43:23.024Z,101682.00
2019-03-30T00:45:54.196Z,101666.00
2019-03-30T00:48:25.661Z,101681.00
2019-03-30T00:50:56.879Z,101675.00
2019-03-30T00:53:28.122Z,101666.00
2019-03-30T00:55:59.267Z,101675.00
2019-03-30T00:58:30.454Z,101674.00
2019-03-30T01:01:01.774Z,101670.00
2019-03-30T01:03:32.986Z,101670.00
2019-03-30T01:06:04.451Z,101672.00
2019-03-30T01:08:35.662Z,101668.00
2019-03-30T01:11:07.252Z,101672.00
2019-03-30T01:13:38.480Z,101661.00
2019-03-30T01:16:10.595Z,101655.00
2019-03-30T01:18:46.176Z,101652.00
2019-03-30T01:21:18.125Z,101646.00
2019-03-30T01:23:51.652Z,101643.00
2019-03-30T01:26:22.896Z,101644.00
2019-03-30T01:28:54.099Z,101637.00
2019-03-30T01:31:25.296Z,101641.00
2019-03-30T01:33:56.610Z,101642.00
2019-03-30T01:36:28.198Z,101638.00
2019-03-30T01:38:59.354Z,101633.00
2019-03-30T01:41:30.506Z,101633.00
2019-03-30T01:44:01.949Z,101632.00
2019-03-30T01:46:33.172Z,101624.00
2019-03-30T01:49:04.591Z,101622.00
2019-03-30T01:51:36.148Z,101632.00
2019-03-30T01:54:07.322Z,101627.00
2019-03-30T01:56:39.355Z,101626.00
2019-03-30T01:59:10.800Z,101620.00
2019-03-30T02:01:41.942Z,101609.00
2019-03-30T02:04:13.132Z,101608.00
2019-03-30T02:06:44.316Z,101604.00
2019-03-30T02:09:22.527Z,101609.00
2019-03-30T02:11:53.973Z,101606.00
2019-03-30T02:14:25.248Z,101603.00
2019-03-30T02:16:56.569Z,101595.00
2019-03-30T02:19:27.735Z,101605.00
2019-03-30T02:21:58.920Z,101594.00
2019-03-30T02:24:30.729Z,101603.00
2019-03-30T02:27:02.270Z,101601.00
2019-03-30T02:29:51.113Z,101593.00
2019-03-30T02:32:22.853Z,101588.00
2019-03-30T02:34:54.005Z,101594.00
2019-03-30T02:37:25.560Z,101594.00
2019-03-30T02:39:56.715Z,101599.00
2019-03-30T02:42:28.257Z,101593.00
2019-03-30T02:44:59.454Z,101591.00
2019-03-30T02:47:30.596Z,101579.00
2019-03-30T02:50:02.077Z,101587.00
2019-03-30T02:52:33.624Z,101582.00
2019-03-30T02:55:04.845Z,101583.00
2019-03-30T02:57:36.388Z,101580.00
2019-03-30T03:00:10.239Z,101573.00
2019-03-30T03:02:41.436Z,101578.00
2019-03-30T03:05:13.036Z,101564.00
2019-03-30T03:07:44.244Z,101564.00
2019-03-30T03:10:15.957Z,101563.00
2019-03-30T03:12:47.411Z,101563.00
2019-03-30T03:15:18.766Z,101554.00
2019-03-30T03:17:49.951Z,101561.00
2019-03-30T03:20:22.150Z,101553.00
2019-03-30T03:22:53.482Z,101546.00
2019-03-30T03:25:24.676Z,101551.00
2019-03-30T03:27:56.189Z,101551.00
2019-03-30T03:30:27.645Z,101541.00
2019-03-30T03:32:59.226Z,101546.00
2019-03-30T03:35:31.039Z,101537.00
2019-03-30T03:38:02.655Z,101531.00
2019-03-30T03:40:34.004Z,101536.00
2019-03-30T03:43:06.033Z,101537.00
2019-03-30T03:45:37.183Z,101524.00
2019-03-30T03:48:08.374Z,101528.00
2019-03-30T03:50:48.842Z,101534.00
2019-03-30T03:53:20.021Z,101534.00
2019-03-30T03:55:51.675Z,101521.00
2019-03-30T03:58:26.921Z,101524.00
2019-03-30T04:01:02.490Z,101520.00
2019-03-30T04:03:35.301Z,101520.00
2019-03-30T04:06:10.207Z,101521.00
2019-03-30T04:08:43.882Z,101512.00
2019-03-30T04:11:18.535Z,101502.00
2019-03-30T04:13:53.032Z,101504.00
2019-03-30T04:16:24.800Z,101499.00
2019-03-30T04:18:55.995Z,101496.00
2019-03-30T04:21:42.865Z,101502.00
2019-03-30T04:24:00.445Z,101487.00
2019-03-30T04:26:31.600Z,101496.00
2019-03-30T04:29:02.910Z,101492.00
2019-03-30T04:31:53.117Z,101503.00
2019-03-30T04:34:24.358Z,101508.00
2019-03-30T04:36:56.081Z,101494.00
2019-03-30T04:39:27.662Z,101507.00
2019-03-30T04:41:58.815Z,101494.00
2019-03-30T04:44:30.002Z,101496.00
2019-03-30T04:47:01.222Z,101503.00
2019-03-30T04:49:32.381Z,101494.00
2019-03-30T04:52:03.537Z,101486.00
2019-03-30T04:54:34.673Z,101484.00
2019-03-30T04:57:06.184Z,101480.00
2019-03-30T04:59:37.325Z,101481.00
2019-03-30T05:02:08.503Z,101485.00
2019-03-30T05:04:39.678Z,101475.00
2019-03-30T05:07:10.828Z,101478.00
2019-03-30T05:09:42.242Z,101474.00
2019-03-30T05:12:13.406Z,101473.00
2019-03-30T05:14:45.123Z,101478.00
2019-03-30T05:17:16.284Z,101472.00
2019-03-30T05:19:48.486Z,101476.00
2019-03-30T05:22:20.039Z,101473.00
2019-03-30T05:24:51.429Z,101464.00
2019-03-30T05:27:22.566Z,101470.00
2019-03-30T05:29:54.005Z,101469.00
2019-03-30T05:32:25.472Z,101476.00
2019-03-30T05:34:56.935Z,101465.00
2019-03-30T05:37:28.082Z,101468.00
2019-03-30T05:39:59.252Z,101473.00
2019-03-30T05:42:30.675Z,101457.00
2019-03-30T05:45:01.892Z,101451.00
2019-03-30T05:47:34.146Z,101464.00
2019-03-30T05:50:05.890Z,101461.00
2019-03-30T05:52:37.109Z,101471.00
2019-03-30T05:55:08.678Z,101466.00
2019-03-30T05:57:40.181Z,101472.00
2019-03-30T06:00:17.067Z,101477.00
2019-03-30T06:02:48.548Z,101464.00
2019-03-30T06:05:19.713Z,101457.00
2019-03-30T06:07:50.964Z,101459.00
2019-03-30T06:10:22.463Z,101462.00
2019-03-30T06:12:53.900Z,101461.00
2019-03-30T06:15:25.305Z,101458.00
2019-03-30T06:17:57.395Z,101457.00
2019-03-30T06:20:28.583Z,101459.00
2019-03-30T06:23:00.500Z,101454.00
2019-03-30T06:25:32.085Z,101459.00
2019-03-30T06:28:03.217Z,101461.00
2019-03-30T06:30:34.627Z,101447.00
2019-03-30T06:33:06.121Z,101449.00
2019-03-30T06:35:37.265Z,101445.00
2019-03-30T06:38:08.432Z,101446.00
2019-03-30T06:40:39.653Z,101448.00
2019-03-30T06:43:10.862Z,101454.00
2019-03-30T06:45:42.418Z,101451.00
2019-03-30T06:48:13.634Z,101447.00
2019-03-30T06:50:44.834Z,101446.00
2019-03-30T06:53:16.205Z,101436.00
2019-03-30T06:55:47.754Z,101446.00
2019-03-30T06:58:19.184Z,101445.00
2019-03-30T07:00:51.457Z,101447.00
2019-03-30T07:03:23.643Z,101441.00
2019-03-30T07:06:04.928Z,101438.00
2019-03-30T07:08:37.313Z,101437.00
2019-03-30T07:11:20.592Z,101452.00
2019-03-30T07:13:44.995Z,101436.00
2019-03-30T07:16:16.150Z,101430.00
2019-03-30T07:18:48.303Z,101439.00
2019-03-30T07:21:19.490Z,101443.00
2019-03-30T07:23:50.672Z,101435.00
2019-03-30T07:26:21.892Z,101437.00
2019-03-30T07:28:53.287Z,101437.00
2019-03-30T07:31:24.548Z,101439.00
2019-03-30T07:33:55.740Z,101439.00
2019-03-30T07:36:26.921Z,101438.00
2019-03-30T07:38:58.143Z,101433.00
2019-03-30T07:41:29.550Z,101433.00
2019-03-30T07:44:01.034Z,101440.00
2019-03-30T07:46:32.829Z,101432.00
2019-03-30T07:49:05.311Z,101433.00
2019-03-30T07:51:36.471Z,101432.00
2019-03-30T07:54:07.594Z,101428.00
2019-03-30T07:56:38.691Z,101433.00
2019-03-30T07:59:09.864Z,101420.00
2019-03-30T08:01:41.036Z,101423.00
2019-03-30T08:04:12.197Z,101430.00
2019-03-30T08:06:43.473Z,101411.00
2019-03-30T08:09:16.100Z,101428.00
2019-03-30T08:11:47.281Z,101428.00
2019-03-30T08:14:18.493Z,101423.00
2019-03-30T08:16:49.946Z,101419.00
2019-03-30T08:19:21.978Z,101417.00
2019-03-30T08:21:53.435Z,101426.00
2019-03-30T08:24:27.539Z,101424.00
2019-03-30T08:26:58.365Z,101418.00
2019-03-30T08:29:31.083Z,101419.00
2019-03-30T08:32:02.660Z,101422.00
2019-03-30T08:34:34.493Z,101414.00
2019-03-30T08:37:05.669Z,101422.00
2019-03-30T08:39:36.955Z,101410.00
2019-03-30T08:42:08.421Z,101408.00
2019-03-30T08:44:50.431Z,101402.00
2019-03-30T08:47:22.388Z,101393.00
2019-03-30T08:49:53.578Z,101397.00
2019-03-30T08:52:25.056Z,101392.00
2019-03-30T08:54:56.756Z,101395.00
2019-03-30T08:57:38.031Z,101392.00
2019-03-30T09:00:09.636Z,101389.00
2019-03-30T09:02:40.788Z,101380.00
2019-03-30T09:05:13.826Z,101383.00
2019-03-30T09:07:45.436Z,101383.00
2019-03-30T09:10:16.599Z,101392.00
2019-03-30T09:12:51.358Z,101379.00
2019-03-30T09:15:22.690Z,101375.00
2019-03-30T09:17:54.130Z,101370.00
2019-03-30T09:20:25.267Z,101366.00
2019-03-30T09:22:56.736Z,101365.00
2019-03-30T09:25:28.235Z,101352.00
2019-03-30T09:27:59.659Z,101357.00
2019-03-30T09:30:31.320Z,101348.00
2019-03-30T09:33:02.600Z,101347.00
2019-03-30T09:35:34.023Z,101349.00
2019-03-30T09:38:05.170Z,101348.00
2019-03-30T09:40:36.602Z,101338.00
2019-03-30T09:43:08.043Z,101342.00
2019-03-30T09:45:39.285Z,101341.00
2019-03-30T09:48:10.689Z,101344.00
2019-03-30T09:50:42.109Z,101337.00
2019-03-30T09:53:13.392Z,101344.00
2019-03-30T09:55:44.554Z,101338.00
2019-03-30T09:58:15.722Z,101335.00
2019-03-30T10:00:47.179Z,101332.00
2019-03-30T10:03:18.461Z,101330.00
2019-03-30T10:06:08.623Z,101327.00
2019-03-30T10:08:40.573Z,101331.00
2019-03-30T10:11:17.239Z,101339.00
2019-03-30T10:13:48.441Z,101331.00
2019-03-30T10:16:19.892Z,101327.00
2019-03-30T10:18:51.577Z,101331.00
2019-03-30T10:21:22.775Z,101331.00
2019-03-30T10:23:53.956Z,101319.00
2019-03-30T10:26:25.112Z,101318.00
2019-03-30T10:28:56.561Z,101320.00
2019-03-30T10:31:27.756Z,101314.00
2019-03-30T10:33:59.337Z,101314.00
2019-03-30T10:36:30.787Z,101305.00
2019-03-30T10:39:05.386Z,101306.00
2019-03-30T10:41:36.558Z,101306.00
2019-03-30T10:44:08.421Z,101305.00
2019-03-30T10:46:40.656Z,101295.00
2019-03-30T10:49:12.367Z,101297.00
2019-03-30T10:51:43.536Z,101288.00
2019-03-30T10:54:15.005Z,101288.00
2019-03-30T10:56:52.134Z,101284.00
2019-03-30T10:59:23.315Z,101284.00
2019-03-30T11:01:54.487Z,101284.00
2019-03-30T11:04:25.632Z,101279.00
2019-03-30T11:06:56.771Z,101272.00
2019-03-30T11:09:28.273Z,101275.00
2019-03-30T11:11:59.463Z,101280.00
2019-03-30T11:14:31.176Z,101283.00
2019-03-30T11:17:03.779Z,101276.00
2019-03-30T11:19:35.049Z,101267.00
2019-03-30T11:22:06.531Z,101266.00
2019-03-30T11:24:38.575Z,101264.00
2019-03-30T11:27:10.046Z,101265.00
2019-03-30T11:29:41.382Z,101257.00
2019-03-30T11:32:18.450Z,101261.00
2019-03-30T11:34:49.656Z,101268.00
2019-03-30T11:37:28.972Z,101261.00
2019-03-30T11:40:00.408Z,101249.00
2019-03-30T11:42:31.839Z,101249.00
2019-03-30T11:45:03.151Z,101248.00
2019-03-30T11:47:34.340Z,101260.00
2019-03-30T11:50:06.863Z,101246.00
2019-03-30T11:52:38.682Z,101251.00
2019-03-30T11:55:21.020Z,101250.00
2019-03-30T11:57:43.917Z,101245.00
2019-03-30T12:00:17.718Z,101243.00
2019-03-30T12:02:48.898Z,101249.00
2019-03-30T12:05:20.095Z,101246.00
2019-03-30T12:07:51.490Z,101236.00
2019-03-30T12:10:22.787Z,101231.00
2019-03-30T12:12:57.639Z,101233.00
2019-03-30T12:15:29.031Z,101234.00
2019-03-30T12:18:00.256Z,101229.00
2019-03-30T12:20:31.787Z,101222.00
2019-03-30T12:23:03.569Z,101210.00
2019-03-30T12:25:37.167Z,101225.00
2019-03-30T12:28:08.441Z,101212.00
2019-03-30T12:30:40.195Z,101202.00
2019-03-30T12:33:11.672Z,101207.00
2019-03-30T12:35:42.899Z,101195.00
2019-03-30T12:38:14.463Z,101207.00
2019-03-30T12:40:45.875Z,101194.00
2019-03-30T12:43:17.104Z,101193.00
2019-03-30T12:45:48.267Z,101184.00
2019-03-30T12:48:20.026Z,101196.00
2019-03-30T12:50:51.225Z,101196.00
2019-03-30T12:53:23.354Z,101179.00
2019-03-30T12:55:54.808Z,101189.00
2019-03-30T12:58:26.015Z,101182.00
2019-03-30T13:00:57.445Z,101169.00
2019-03-30T13:03:28.674Z,101179.00
2019-03-30T13:06:06.937Z,101173.00
2019-03-30T13:08:38.067Z,101182.00
2019-03-30T13:11:09.248Z,101173.00
2019-03-30T13:13:40.381Z,101179.00
2019-03-30T13:16:11.814Z,101181.00
2019-03-30T13:18:43.445Z,101175.00
2019-03-30T13:21:14.571Z,101184.00
2019-03-30T13:23:45.995Z,101182.00
2019-03-30T13:26:17.185Z,101185.00
2019-03-30T13:28:48.974Z,101169.00
2019-03-30T13:31:20.431Z,101176.00
2019-03-30T13:33:51.625Z,101182.00
2019-03-30T13:36:38.892Z,101169.00
2019-03-30T13:39:11.342Z,101174.00
2019-03-30T13:41:42.475Z,101178.00
2019-03-30T13:44:13.622Z,101175.00
2019-03-30T13:46:44.754Z,101168.00
2019-03-30T13:49:15.946Z,101173.00
2019-03-30T13:51:47.360Z,101168.00
2019-03-30T13:54:18.786Z,101163.00
2019-03-30T13:56:49.969Z,101164.00
2019-03-30T13:59:21.429Z,101160.00
2019-03-30T14:01:53.445Z,101160.00
2019-03-30T14:04:25.017Z,101156.00
2019-03-30T14:06:56.410Z,101160.00
2019-03-30T14:09:27.580Z,101157.00
2019-03-30T14:11:59.024Z,101154.00
2019-03-30T14:14:30.467Z,101165.00
2019-03-30T14:17:01.630Z,101150.00
2019-03-30T14:19:33.081Z,101164.00
2019-03-30T14:22:04.230Z,101164.00
2019-03-30T14:24:35.450Z,101171.00
2019-03-30T14:27:06.640Z,101163.00
2019-03-30T14:29:38.149Z,101163.00
2019-03-30T14:32:09.334Z,101157.00
2019-03-30T14:34:40.545Z,101147.00
2019-03-30T14:37:11.684Z,101149.00
2019-03-30T14:39:43.397Z,101150.00
2019-03-30T14:42:14.564Z,101152.00
2019-03-30T14:44:45.734Z,101154.00
2019-03-30T14:47:16.901Z,101157.00
2019-03-30T14:49:48.324Z,101151.00
2019-03-30T14:52:19.818Z,101164.00
2019-03-30T14:54:53.035Z,101158.00
2019-03-30T14:57:24.235Z,101153.00
2019-03-30T14:59:55.397Z,101152.00
2019-03-30T15:02:26.847Z,101143.00
2019-03-30T15:05:00.980Z,101147.00
2019-03-30T15:07:31.227Z,101151.00
2019-03-30T15:10:02.390Z,101148.00
2019-03-30T15:12:34.244Z,101155.00
2019-03-30T15:15:06.235Z,101146.00
2019-03-30T15:17:40.408Z,101155.00
2019-03-30T15:20:11.592Z,101147.00
2019-03-30T15:22:42.821Z,101138.00
2019-03-30T15:25:15.579Z,101137.00
2019-03-30T15:27:46.769Z,101136.00
2019-03-30T15:30:17.962Z,101137.00
2019-03-30T15:32:49.310Z,101134.00
2019-03-30T15:35:20.501Z,101143.00
2019-03-30T15:37:51.666Z,101135.00
2019-03-30T15:40:22.846Z,101136.00
2019-03-30T15:42:54.080Z,101123.00
2019-03-30T15:45:25.272Z,101120.00
2019-03-30T15:47:56.738Z,101132.00
2019-03-30T15:50:27.974Z,101128.00
2019-03-30T15:52:59.493Z,101119.00
2019-03-30T15:55:30.634Z,101130.00
2019-03-30T15:58:02.062Z,101128.00
2019-03-30T16:00:33.217Z,101127.00
2019-03-30T16:03:04.674Z,101126.00
2019-03-30T16:05:35.847Z,101124.00
2019-03-30T16:08:06.991Z,101113.00
2019-03-30T16:10:38.182Z,101120.00
2019-03-30T16:13:09.335Z,101122.00
2019-03-30T16:15:44.442Z,101126.00
2019-03-30T16:18:13.847Z,101124.00
2019-03-30T16:20:45.011Z,101123.00
2019-03-30T16:23:16.165Z,101123.00
2019-03-30T16:25:47.275Z,101118.00
2019-03-30T16:28:18.715Z,101124.00
2019-03-30T16:30:49.884Z,101130.00
2019-03-30T16:33:21.599Z,101133.00
2019-03-30T16:35:52.764Z,101118.00
2019-03-30T16:38:23.986Z,101124.00
2019-03-30T16:40:55.853Z,101122.00
2019-03-30T16:43:27.075Z,101123.00
2019-03-30T16:45:58.478Z,101127.00
2019-03-30T16:48:29.650Z,101129.00
2019-03-30T16:51:01.071Z,101126.00
2019-03-30T16:53:32.234Z,101130.00
2019-03-30T16:56:03.360Z,101129.00
2019-03-30T16:58:34.892Z,101132.00
2019-03-30T17:01:06.102Z,101129.00
2019-03-30T17:03:37.516Z,101127.00
2019-03-30T17:06:09.463Z,101114.00
2019-03-30T17:08:50.338Z,101123.00
2019-03-30T17:11:21.525Z,101128.00
2019-03-30T17:13:52.987Z,101131.00
2019-03-30T17:16:24.248Z,101126.00
2019-03-30T17:18:55.435Z,101126.00
2019-03-30T17:21:26.842Z,101127.00
2019-03-30T17:23:57.976Z,101117.00
2019-03-30T17:26:29.150Z,101130.00
2019-03-30T17:29:00.553Z,101122.00
2019-03-30T17:31:37.703Z,101132.00
2019-03-30T17:34:08.884Z,101130.00
2019-03-30T17:36:40.355Z,101122.00
2019-03-30T17:39:12.505Z,101126.00
2019-03-30T17:41:43.676Z,101121.00
2019-03-30T17:44:14.852Z,101127.00
2019-03-30T17:46:48.105Z,101126.00
2019-03-30T17:49:19.314Z,101133.00
2019-03-30T17:51:53.880Z,101134.00
2019-03-30T17:54:24.058Z,101127.00
2019-03-30T17:56:55.699Z,101133.00
2019-03-30T17:59:26.896Z,101133.00
2019-03-30T18:02:03.147Z,101140.00
2019-03-30T18:04:34.591Z,101138.00
2019-03-30T18:07:05.756Z,101143.00
2019-03-30T18:09:37.567Z,101147.00
2019-03-30T18:12:08.704Z,101143.00
2019-03-30T18:14:40.195Z,101141.00
2019-03-30T18:17:11.331Z,101144.00
2019-03-30T18:19:42.502Z,101154.00
2019-03-30T18:22:13.726Z,101148.00
2019-03-30T18:24:44.912Z,101154.00
2019-03-30T18:27:16.113Z,101159.00
2019-03-30T18:29:47.586Z,101160.00
2019-03-30T18:32:20.261Z,101167.00
2019-03-30T18:34:52.211Z,101164.00
2019-03-30T18:37:24.908Z,101173.00
2019-03-30T18:39:56.436Z,101178.00
2019-03-30T18:42:28.983Z,101183.00
2019-03-30T18:45:01.705Z,101186.00
2019-03-30T18:47:32.923Z,101182.00
2019-03-30T18:50:04.431Z,101174.00
2019-03-30T18:52:36.119Z,101199.00
2019-03-30T18:55:07.498Z,101201.00
2019-03-30T18:57:39.432Z,101211.00
2019-03-30T19:00:12.419Z,101201.00
2019-03-30T19:02:43.666Z,101206.00
2019-03-30T19:05:14.821Z,101210.00
2019-03-30T19:07:46.045Z,101211.00
2019-03-30T19:10:17.613Z,101207.00
2019-03-30T19:12:49.094Z,101217.00
2019-03-30T19:15:20.345Z,101219.00
2019-03-30T19:17:51.837Z,101224.00
2019-03-30T19:20:23.054Z,101222.00
2019-03-30T19:22:56.513Z,101220.00
2019-03-30T19:25:29.702Z,101229.00
2019-03-30T19:28:00.867Z,101233.00
2019-03-30T19:30:32.132Z,101227.00
2019-03-30T19:33:04.044Z,101224.00
2019-03-30T19:35:35.580Z,101234.00
2019-03-30T19:38:06.878Z,101227.00
2019-03-30T19:40:38.860Z,101225.00
2019-03-30T19:43:10.390Z,101236.00
2019-03-30T19:45:41.598Z,101234.00
2019-03-30T19:48:13.146Z,101239.00
2019-03-30T19:50:44.356Z,101240.00
2019-03-30T19:53:15.849Z,101239.00
2019-03-30T19:55:47.667Z,101232.00
2019-03-30T19:58:19.197Z,101245.00
2019-03-30T20:00:50.954Z,101245.00
2019-03-30T20:03:32.409Z,101250.00
2019-03-30T20:06:03.592Z,101242.00
2019-03-30T20:08:34.994Z,101236.00
2019-03-30T20:11:06.327Z,101250.00
2019-03-30T20:13:37.554Z,101252.00
2019-03-30T20:16:09.348Z,101260.00
2019-03-30T20:18:40.519Z,101261.00
2019-03-30T20:21:12.027Z,101261.00
2019-03-30T20:23:43.301Z,101258.00
2019-03-30T20:26:15.420Z,101267.00
2019-03-30T20:28:46.636Z,101257.00
2019-03-30T20:31:17.916Z,101264.00
2019-03-30T20:33:49.107Z,101266.00
2019-03-30T20:36:20.666Z,101255.00
2019-03-30T20:38:51.978Z,101257.00
2019-03-30T20:41:23.561Z,101257.00
2019-03-30T20:43:54.738Z,101254.00
2019-03-30T20:46:25.907Z,101264.00
2019-03-30T20:48:57.142Z,101267.00
2019-03-30T20:51:28.702Z,101259.00
2019-03-30T20:53:59.928Z,101260.00
2019-03-30T20:56:31.095Z,101263.00
2019-03-30T20:59:06.461Z,101260.00
2019-03-30T21:01:38.487Z,101260.00
2019-03-30T21:04:10.100Z,101263.00
2019-03-30T21:06:47.586Z,101257.00
2019-03-30T21:09:18.785Z,101268.00
2019-03-30T21:11:49.979Z,101268.00
2019-03-30T21:14:21.500Z,101275.00
2019-03-30T21:16:53.515Z,101271.00
2019-03-30T21:19:24.956Z,101277.00
2019-03-30T21:21:56.782Z,101271.00
2019-03-30T21:24:27.951Z,101266.00
2019-03-30T21:26:59.176Z,101271.00
2019-03-30T21:29:30.909Z,101269.00
2019-03-30T21:32:03.380Z,101276.00
2019-03-30T21:34:34.859Z,101272.00
2019-03-30T21:37:06.129Z,101284.00
2019-03-30T21:39:37.280Z,101272.00
2019-03-30T21:42:09.055Z,101270.00
2019-03-30T21:44:40.259Z,101277.00
2019-03-30T21:47:11.419Z,101274.00
2019-03-30T21:49:46.996Z,101275.00
2019-03-30T21:52:18.651Z,101272.00
2019-03-30T21:54:50.139Z,101269.00
2019-03-30T21:57:21.327Z,101277.00
2019-03-30T21:59:52.496Z,101276.00
2019-03-30T22:02:23.673Z,101277.00
2019-03-30T22:04:54.801Z,101277.00
2019-03-30T22:07:26.537Z,101278.00
2019-03-30T22:09:59.178Z,101280.00
2019-03-30T22:12:30.666Z,101282.00
2019-03-30T22:15:02.143Z,101277.00
2019-03-30T22:17:33.321Z,101275.00
2019-03-30T22:20:05.260Z,101276.00
2019-03-30T22:22:36.703Z,101274.00
2019-03-30T22:25:09.037Z,101282.00
2019-03-30T22:27:40.262Z,101277.00
2019-03-30T22:30:24.010Z,101265.00
2019-03-30T22:32:44.772Z,101284.00
2019-03-30T22:35:16.061Z,101281.00
2019-03-30T22:37:47.248Z,101288.00
2019-03-30T22:40:18.611Z,101289.00
2019-03-30T22:42:50.069Z,101286.00
2019-03-30T22:45:21.515Z,101288.00
2019-03-30T22:47:52.663Z,101281.00
2019-03-30T22:50:24.113Z,101285.00
2019-03-30T22:52:55.363Z,101277.00
2019-03-30T22:55:26.512Z,101292.00
2019-03-30T22:57:57.963Z,101283.00
2019-03-30T23:00:47.247Z,101289.00
2019-03-30T23:03:18.443Z,101285.00
2019-03-30T23:05:52.027Z,101278.00
2019-03-30T23:08:23.219Z,101281.00
2019-03-30T23:10:54.409Z,101282.00
2019-03-30T23:13:25.608Z,101291.00
2019-03-30T23:15:57.423Z,101284.00
2019-03-30T23:18:28.607Z,101282.00
2019-03-30T23:20:59.762Z,101289.00
2019-03-30T23:23:32.049Z,101280.00
2019-03-30T23:26:03.216Z,101287.00
2019-03-30T23:28:34.698Z,101289.00
2019-03-30T23:31:05.889Z,101284.00
2019-03-30T23:33:37.368Z,101289.00
2019-03-30T23:36:08.569Z,101293.00
2019-03-30T23:38:39.785Z,101289.00
2019-03-30T23:41:11.057Z,101300.00
2019-03-30T23:43:42.483Z,101299.00
2019-03-30T23:46:13.776Z,101310.00
2019-03-30T23:48:45.204Z,101299.00
2019-03-30T23:51:16.691Z,101294.00
2019-03-30T23:53:48.461Z,101302.00
2019-03-30T23:56:23.236Z,101297.00
2019-03-30T23:58:57.575Z,101290.00
